sensor_id;sensor_type;location;lat;lon;timestamp;pressure;altitude;pressure_sealevel;temperature;humidity
77706;BME280;66874;45.274;5.880;2023-02-11T00:01:49;101049.63;;;-1.29;56.12
77706;BME280;66874;45.274;5.880;2023-02-11T00:04:15;101051.13;;;-1.32;56.38
77706;BME280;66874;45.274;5.880;2023-02-11T00:06:41;101052.81;;;-1.33;56.43
77706;BME280;66874;45.274;5.880;2023-02-11T00:09:06;101040.06;;;-1.31;56.47
77706;BME280;66874;45.274;5.880;2023-02-11T00:11:32;101046.97;;;-1.30;56.67
77706;BME280;66874;45.274;5.880;2023-02-11T00:14:00;101039.09;;;-1.33;56.64
77706;BME280;66874;45.274;5.880;2023-02-11T00:16:27;101050.94;;;-1.35;56.55
77706;BME280;66874;45.274;5.880;2023-02-11T00:18:53;101050.94;;;-1.35;56.71
77706;BME280;66874;45.274;5.880;2023-02-11T00:21:21;101049.97;;;-1.37;56.73
77706;BME280;66874;45.274;5.880;2023-02-11T00:23:47;101063.69;;;-1.37;56.74
77706;BME280;66874;45.274;5.880;2023-02-11T00:26:15;101062.69;;;-1.39;56.82
77706;BME280;66874;45.274;5.880;2023-02-11T00:28:41;101065.19;;;-1.40;56.84
77706;BME280;66874;45.274;5.880;2023-02-11T03:01:31;100982.09;;;-2.80;60.51
77706;BME280;66874;45.274;5.880;2023-02-11T03:03:53;100975.06;;;-2.82;60.46
77706;BME280;66874;45.274;5.880;2023-02-11T03:06:33;100973.31;;;-2.83;60.60
77706;BME280;66874;45.274;5.880;2023-02-11T03:09:10;100972.53;;;-2.82;60.27
77706;BME280;66874;45.274;5.880;2023-02-11T03:11:37;100970.84;;;-2.82;60.53
77706;BME280;66874;45.274;5.880;2023-02-11T03:14:08;100963.34;;;-2.79;60.55
77706;BME280;66874;45.274;5.880;2023-02-11T03:16:35;100971.13;;;-2.77;60.21
77706;BME280;66874;45.274;5.880;2023-02-11T03:19:11;100963.56;;;-2.76;60.59
77706;BME280;66874;45.274;5.880;2023-02-11T03:21:40;100966.13;;;-2.76;60.66
77706;BME280;66874;45.274;5.880;2023-02-11T03:24:11;100966.13;;;-2.76;60.56
77706;BME280;66874;45.274;5.880;2023-02-11T03:26:51;100975.00;;;-2.84;60.78
77706;BME280;66874;45.274;5.880;2023-02-11T06:32:20;100922.69;;;-3.90;63.46
77706;BME280;66874;45.274;5.880;2023-02-11T06:34:46;100919.59;;;-3.98;63.68
77706;BME280;66874;45.274;5.880;2023-02-11T06:37:11;100923.31;;;-4.06;63.85
77706;BME280;66874;45.274;5.880;2023-02-11T06:39:37;100919.75;;;-4.08;64.16
77706;BME280;66874;45.274;5.880;2023-02-11T06:42:02;100925.66;;;-4.09;64.00
77706;BME280;66874;45.274;5.880;2023-02-11T06:44:28;100923.00;;;-4.11;64.29
77706;BME280;66874;45.274;5.880;2023-02-11T06:46:53;100930.66;;;-4.11;64.42
77706;BME280;66874;45.274;5.880;2023-02-11T06:49:19;100924.84;;;-4.08;64.38
77706;BME280;66874;45.274;5.880;2023-02-11T06:51:44;100936.88;;;-4.07;64.42
77706;BME280;66874;45.274;5.880;2023-02-11T06:54:10;100935.22;;;-4.07;64.30
77706;BME280;66874;45.274;5.880;2023-02-11T06:56:38;100938.66;;;-4.06;64.05
77706;BME280;66874;45.274;5.880;2023-02-11T06:59:04;100936.97;;;-4.06;64.18
77706;BME280;66874;45.274;5.880;2023-02-11T07:01:30;100942.00;;;-4.07;64.30
77706;BME280;66874;45.274;5.880;2023-02-11T07:03:55;100951.88;;;-4.12;64.59
77706;BME280;66874;45.274;5.880;2023-02-11T07:06:23;100956.31;;;-4.09;64.65
77706;BME280;66874;45.274;5.880;2023-02-11T07:08:49;100949.53;;;-4.09;64.61
77706;BME280;66874;45.274;5.880;2023-02-11T07:11:18;100963.09;;;-4.10;64.64
77706;BME280;66874;45.274;5.880;2023-02-11T07:13:44;100962.09;;;-4.12;64.81
77706;BME280;66874;45.274;5.880;2023-02-11T07:16:12;100962.97;;;-4.11;64.87
77706;BME280;66874;45.274;5.880;2023-02-11T07:18:38;100959.44;;;-4.13;65.18
77706;BME280;66874;45.274;5.880;2023-02-11T07:21:09;100957.88;;;-4.11;64.93
77706;BME280;66874;45.274;5.880;2023-02-11T07:23:35;100952.88;;;-4.10;64.92
77706;BME280;66874;45.274;5.880;2023-02-11T07:26:02;100954.88;;;-4.06;64.89
77706;BME280;66874;45.274;5.880;2023-02-11T07:28:28;100953.63;;;-3.99;65.20
77706;BME280;66874;45.274;5.880;2023-02-11T07:30:53;100955.69;;;-3.94;65.18
77706;BME280;66874;45.274;5.880;2023-02-11T07:33:19;100958.69;;;-3.87;64.92
77706;BME280;66874;45.274;5.880;2023-02-11T07:35:44;100965.09;;;-3.81;65.04
77706;BME280;66874;45.274;5.880;2023-02-11T07:38:09;100962.88;;;-3.76;64.94
77706;BME280;66874;45.274;5.880;2023-02-11T07:40:35;100984.53;;;-3.71;64.96
77706;BME280;66874;45.274;5.880;2023-02-11T07:43:00;100985.72;;;-3.66;64.93
77706;BME280;66874;45.274;5.880;2023-02-11T07:45:27;100988.59;;;-3.61;65.07
77706;BME280;66874;45.274;5.880;2023-02-11T07:47:52;100994.03;;;-3.57;65.14
77706;BME280;66874;45.274;5.880;2023-02-11T07:50:18;100996.91;;;-3.52;65.31
77706;BME280;66874;45.274;5.880;2023-02-11T07:52:43;101004.31;;;-3.44;65.28
77706;BME280;66874;45.274;5.880;2023-02-11T07:55:09;100999.59;;;-3.37;65.32
77706;BME280;66874;45.274;5.880;2023-02-11T07:57:34;101008.00;;;-3.27;65.16
77706;BME280;66874;45.274;5.880;2023-02-11T08:00:00;101006.94;;;-3.17;65.15
77706;BME280;66874;45.274;5.880;2023-02-11T08:02:26;101013.44;;;-3.09;65.35
77706;BME280;66874;45.274;5.880;2023-02-11T08:04:51;101011.53;;;-3.00;65.24
77706;BME280;66874;45.274;5.880;2023-02-11T08:07:17;101007.88;;;-2.90;65.17
77706;BME280;66874;45.274;5.880;2023-02-11T08:09:43;101007.69;;;-2.80;65.03
77706;BME280;66874;45.274;5.880;2023-02-11T08:12:09;101002.38;;;-2.70;65.17
77706;BME280;66874;45.274;5.880;2023-02-11T08:14:34;101003.84;;;-2.60;65.11
77706;BME280;66874;45.274;5.880;2023-02-11T08:17:00;101007.00;;;-2.51;65.01
77706;BME280;66874;45.274;5.880;2023-02-11T08:19:25;101005.03;;;-2.41;64.81
77706;BME280;66874;45.274;5.880;2023-02-11T08:21:54;101005.31;;;-2.37;64.70
77706;BME280;66874;45.274;5.880;2023-02-11T08:24:20;101005.00;;;-2.28;65.29
77706;BME280;66874;45.274;5.880;2023-02-11T08:26:46;101000.78;;;-2.14;65.56
77706;BME280;66874;45.274;5.880;2023-02-11T08:29:13;100997.28;;;-2.02;65.23
77706;BME280;66874;45.274;5.880;2023-02-11T08:31:40;100999.63;;;-1.91;65.51
77706;BME280;66874;45.274;5.880;2023-02-11T08:34:06;100998.50;;;-1.82;65.21
77706;BME280;66874;45.274;5.880;2023-02-11T08:36:34;100997.13;;;-1.77;65.44
77706;BME280;66874;45.274;5.880;2023-02-11T08:39:03;101003.41;;;-1.72;65.38
77706;BME280;66874;45.274;5.880;2023-02-11T08:41:30;101008.13;;;-1.64;65.43
77706;BME280;66874;45.274;5.880;2023-02-11T08:43:56;101004.22;;;-1.58;65.21
77706;BME280;66874;45.274;5.880;2023-02-11T08:46:21;101005.59;;;-1.50;65.13
77706;BME280;66874;45.274;5.880;2023-02-11T08:48:47;101008.72;;;-1.40;64.85
77706;BME280;66874;45.274;5.880;2023-02-11T08:51:24;101018.75;;;-1.30;64.92
77706;BME280;66874;45.274;5.880;2023-02-11T08:53:52;101015.63;;;-1.25;64.86
77706;BME280;66874;45.274;5.880;2023-02-11T08:56:19;101015.91;;;-1.20;64.95
77706;BME280;66874;45.274;5.880;2023-02-11T08:58:45;101011.75;;;-1.18;64.98
77706;BME280;66874;45.274;5.880;2023-02-11T09:01:19;101020.00;;;-1.09;65.01
77706;BME280;66874;45.274;5.880;2023-02-11T09:03:45;101019.75;;;-0.99;65.05
77706;BME280;66874;45.274;5.880;2023-02-11T09:06:12;101020.38;;;-0.88;64.96
77706;BME280;66874;45.274;5.880;2023-02-11T09:08:41;101020.38;;;-0.73;64.98
77706;BME280;66874;45.274;5.880;2023-02-11T09:11:08;101021.06;;;-0.61;64.88
77706;BME280;66874;45.274;5.880;2023-02-11T09:13:34;101013.22;;;-0.47;64.66
77706;BME280;66874;45.274;5.880;2023-02-11T09:16:01;101014.19;;;-0.31;64.57
77706;BME280;66874;45.274;5.880;2023-02-11T09:18:27;101004.13;;;-0.11;64.47
77706;BME280;66874;45.274;5.880;2023-02-11T09:21:00;101007.84;;;0.10;64.40
77706;BME280;66874;45.274;5.880;2023-02-11T09:23:26;101001.97;;;0.29;64.05
77706;BME280;66874;45.274;5.880;2023-02-11T09:25:51;100997.88;;;0.49;63.88
77706;BME280;66874;45.274;5.880;2023-02-11T09:28:17;100985.25;;;0.70;63.52
77706;BME280;66874;45.274;5.880;2023-02-11T09:30:42;100981.47;;;0.97;63.27
77706;BME280;66874;45.274;5.880;2023-02-11T09:33:07;100984.00;;;1.14;62.70
77706;BME280;66874;45.274;5.880;2023-02-11T09:35:33;100980.69;;;1.34;62.30
77706;BME280;66874;45.274;5.880;2023-02-11T09:37:59;100974.16;;;1.59;62.16
77706;BME280;66874;45.274;5.880;2023-02-11T09:40:24;100967.91;;;1.91;62.01
77706;BME280;66874;45.274;5.880;2023-02-11T09:45:27;100969.63;;;2.49;61.35
77706;BME280;66874;45.274;5.880;2023-02-11T09:47:58;100967.31;;;2.74;61.04
77706;BME280;66874;45.274;5.880;2023-02-11T09:50:38;100975.91;;;2.94;60.64
77706;BME280;66874;45.274;5.880;2023-02-11T09:55:52;100960.69;;;3.43;60.16
77706;BME280;66874;45.274;5.880;2023-02-11T10:03:41;100959.59;;;4.04;58.76
77706;BME280;66874;45.274;5.880;2023-02-11T10:22:27;100964.25;;;5.93;56.10
77706;BME280;66874;45.274;5.880;2023-02-11T10:24:56;100966.72;;;6.19;55.49
77706;BME280;66874;45.274;5.880;2023-02-11T10:27:30;100976.91;;;6.41;55.03
77706;BME280;66874;45.274;5.880;2023-02-11T10:30:21;100968.72;;;6.57;54.51
77706;BME280;66874;45.274;5.880;2023-02-11T10:32:56;100969.56;;;6.90;54.09
77706;BME280;66874;45.274;5.880;2023-02-11T10:35:23;100965.91;;;7.16;53.45
77706;BME280;66874;45.274;5.880;2023-02-11T10:37:51;100955.09;;;7.36;53.31
77706;BME280;66874;45.274;5.880;2023-02-11T10:40:22;100952.53;;;7.75;53.10
77706;BME280;66874;45.274;5.880;2023-02-11T10:42:51;100951.47;;;8.06;52.53
77706;BME280;66874;45.274;5.880;2023-02-11T10:45:27;100951.03;;;8.25;51.95
77706;BME280;66874;45.274;5.880;2023-02-11T10:47:54;100942.88;;;8.51;51.65
77706;BME280;66874;45.274;5.880;2023-02-11T10:52:45;100931.75;;;9.10;50.41
77706;BME280;66874;45.274;5.880;2023-02-11T10:57:51;100927.34;;;9.62;49.40
77706;BME280;66874;45.274;5.880;2023-02-11T11:02:42;100919.84;;;9.86;48.89
77706;BME280;66874;45.274;5.880;2023-02-11T11:05:17;100924.59;;;10.15;48.24
77706;BME280;66874;45.274;5.880;2023-02-11T11:07:55;100917.84;;;10.34;47.77
77706;BME280;66874;45.274;5.880;2023-02-11T11:10:27;100914.59;;;10.55;47.22
77706;BME280;66874;45.274;5.880;2023-02-11T11:12:52;100908.66;;;10.71;46.79
77706;BME280;66874;45.274;5.880;2023-02-11T11:15:27;100898.34;;;10.89;46.18
77706;BME280;66874;45.274;5.880;2023-02-11T11:20:34;100883.72;;;11.17;45.60
77706;BME280;66874;45.274;5.880;2023-02-11T11:23:17;100871.66;;;11.38;45.01
77706;BME280;66874;45.274;5.880;2023-02-11T11:25:56;100874.38;;;11.55;45.15
77706;BME280;66874;45.274;5.880;2023-02-11T11:28:25;100862.34;;;11.86;44.47
77706;BME280;66874;45.274;5.880;2023-02-11T11:30:53;100860.69;;;12.11;44.29
77706;BME280;66874;45.274;5.880;2023-02-11T11:33:28;100857.22;;;12.16;43.82
77706;BME280;66874;45.274;5.880;2023-02-11T11:38:24;100845.00;;;12.44;43.17
77706;BME280;66874;45.274;5.880;2023-02-11T11:41:28;100834.53;;;12.57;41.74
77706;BME280;66874;45.274;5.880;2023-02-11T11:46:35;100828.41;;;13.25;41.97
77706;BME280;66874;45.274;5.880;2023-02-11T11:55:04;100825.75;;;13.36;41.16
77706;BME280;66874;45.274;5.880;2023-02-11T11:57:37;100809.06;;;13.58;40.88
77706;BME280;66874;45.274;5.880;2023-02-11T12:00:03;100806.31;;;13.83;40.53
77706;BME280;66874;45.274;5.880;2023-02-11T12:02:52;100800.97;;;13.95;39.64
77706;BME280;66874;45.274;5.880;2023-02-11T12:10:39;100786.47;;;15.54;39.33
77706;BME280;66874;45.274;5.880;2023-02-11T12:13:26;100787.09;;;16.40;37.67
77706;BME280;66874;45.274;5.880;2023-02-11T12:16:32;100779.81;;;17.08;36.79
77706;BME280;66874;45.274;5.880;2023-02-11T12:21:53;100770.13;;;18.33;34.08
77706;BME280;66874;45.274;5.880;2023-02-11T12:30:20;100757.78;;;19.96;32.02
77706;BME280;66874;45.274;5.880;2023-02-11T12:33:04;100746.53;;;20.43;31.08
77706;BME280;66874;45.274;5.880;2023-02-11T12:38:39;100731.22;;;20.78;29.92
77706;BME280;66874;45.274;5.880;2023-02-11T12:44:44;100713.94;;;21.63;28.72
77706;BME280;66874;45.274;5.880;2023-02-11T12:50:10;100714.94;;;21.12;27.75
77706;BME280;66874;45.274;5.880;2023-02-11T12:52:49;100703.94;;;20.72;28.07
77706;BME280;66874;45.274;5.880;2023-02-11T12:55:24;100706.50;;;20.49;28.27
77706;BME280;66874;45.274;5.880;2023-02-11T12:57:53;100695.88;;;20.21;28.61
77706;BME280;66874;45.274;5.880;2023-02-11T13:03:24;100687.81;;;20.24;29.08
77706;BME280;66874;45.274;5.880;2023-02-11T13:05:59;100689.53;;;21.03;28.60
77706;BME280;66874;45.274;5.880;2023-02-11T13:08:34;100665.53;;;21.52;27.70
77706;BME280;66874;45.274;5.880;2023-02-11T13:11:06;100665.38;;;21.78;26.79
77706;BME280;66874;45.274;5.880;2023-02-11T13:19:23;100653.78;;;22.45;25.37
77706;BME280;66874;45.274;5.880;2023-02-11T13:22:27;100648.13;;;22.10;26.22
77706;BME280;66874;45.274;5.880;2023-02-11T13:30:32;100647.88;;;22.98;25.28
77706;BME280;66874;45.274;5.880;2023-02-11T13:35:34;100626.88;;;23.49;24.50
77706;BME280;66874;45.274;5.880;2023-02-11T13:38:11;100632.22;;;23.30;24.65
77706;BME280;66874;45.274;5.880;2023-02-11T13:40:42;100628.81;;;22.87;24.32
77706;BME280;66874;45.274;5.880;2023-02-11T13:43:34;100627.69;;;22.93;24.51
77706;BME280;66874;45.274;5.880;2023-02-11T13:46:03;100629.41;;;23.14;24.52
77706;BME280;66874;45.274;5.880;2023-02-11T13:48:32;100626.66;;;23.15;24.34
77706;BME280;66874;45.274;5.880;2023-02-11T13:51:05;100621.19;;;22.38;24.35
77706;BME280;66874;45.274;5.880;2023-02-11T13:53:56;100613.59;;;21.63;24.29
77706;BME280;66874;45.274;5.880;2023-02-11T13:58:59;100622.25;;;20.76;25.25
77706;BME280;66874;45.274;5.880;2023-02-11T14:04:36;100616.19;;;20.46;25.52
77706;BME280;66874;45.274;5.880;2023-02-11T14:07:31;100612.09;;;20.37;25.44
77706;BME280;66874;45.274;5.880;2023-02-11T14:13:21;100616.38;;;19.88;25.54
77706;BME280;66874;45.274;5.880;2023-02-11T14:15:47;100618.22;;;19.86;25.73
77706;BME280;66874;45.274;5.880;2023-02-11T14:18:39;100615.16;;;19.72;25.69
77706;BME280;66874;45.274;5.880;2023-02-11T14:23:50;100604.91;;;19.88;25.63
77706;BME280;66874;45.274;5.880;2023-02-11T14:28:46;100604.38;;;19.77;25.39
77706;BME280;66874;45.274;5.880;2023-02-11T14:34:16;100597.97;;;19.54;25.38
77706;BME280;66874;45.274;5.880;2023-02-11T14:37:00;100601.59;;;19.51;25.40
77706;BME280;66874;45.274;5.880;2023-02-11T14:42:25;100600.72;;;19.23;25.36
77706;BME280;66874;45.274;5.880;2023-02-11T14:44:54;100600.19;;;19.40;25.53
77706;BME280;66874;45.274;5.880;2023-02-11T14:47:50;100597.06;;;19.55;25.45
77706;BME280;66874;45.274;5.880;2023-02-11T14:50:25;100593.25;;;19.64;25.43
77706;BME280;66874;45.274;5.880;2023-02-11T14:52:52;100600.53;;;19.57;25.52
77706;BME280;66874;45.274;5.880;2023-02-11T14:55:31;100592.38;;;19.65;25.52
77706;BME280;66874;45.274;5.880;2023-02-11T14:58:11;100592.56;;;19.57;25.69
77706;BME280;66874;45.274;5.880;2023-02-11T15:00:47;100591.44;;;19.36;25.54
77706;BME280;66874;45.274;5.880;2023-02-11T15:03:27;100577.28;;;19.37;25.58
77706;BME280;66874;45.274;5.880;2023-02-11T15:05:56;100578.19;;;19.36;25.78
77706;BME280;66874;45.274;5.880;2023-02-11T15:08:23;100579.81;;;19.40;25.67
77706;BME280;66874;45.274;5.880;2023-02-11T15:10:48;100576.03;;;19.49;25.45
77706;BME280;66874;45.274;5.880;2023-02-11T15:13:19;100573.72;;;19.66;25.28
77706;BME280;66874;45.274;5.880;2023-02-11T15:15:46;100571.28;;;19.59;25.21
77706;BME280;66874;45.274;5.880;2023-02-11T15:18:24;100569.66;;;19.55;25.26
77706;BME280;66874;45.274;5.880;2023-02-11T15:20:53;100571.78;;;19.43;25.31
77706;BME280;66874;45.274;5.880;2023-02-11T15:23:24;100569.28;;;19.39;25.42
77706;BME280;66874;45.274;5.880;2023-02-11T15:25:51;100573.41;;;19.19;25.63
77706;BME280;66874;45.274;5.880;2023-02-11T15:28:28;100565.25;;;19.25;25.43
77706;BME280;66874;45.274;5.880;2023-02-11T15:31:04;100564.19;;;19.31;25.43
77706;BME280;66874;45.274;5.880;2023-02-11T15:33:36;100564.13;;;19.33;25.79
77706;BME280;66874;45.274;5.880;2023-02-11T15:36:02;100562.41;;;19.32;25.41
77706;BME280;66874;45.274;5.880;2023-02-11T15:38:28;100569.91;;;19.17;25.35
77706;BME280;66874;45.274;5.880;2023-02-11T15:41:04;100559.50;;;19.11;25.45
77706;BME280;66874;45.274;5.880;2023-02-11T15:43:49;100561.38;;;19.08;25.35
77706;BME280;66874;45.274;5.880;2023-02-11T15:46:22;100556.81;;;19.13;25.45
77706;BME280;66874;45.274;5.880;2023-02-11T15:51:35;100562.56;;;18.66;25.66
77706;BME280;66874;45.274;5.880;2023-02-11T15:54:07;100570.28;;;18.43;26.32
77706;BME280;66874;45.274;5.880;2023-02-11T15:56:41;100559.34;;;18.55;26.09
77706;BME280;66874;45.274;5.880;2023-02-11T16:01:57;100569.84;;;18.27;26.27
77706;BME280;66874;45.274;5.880;2023-02-11T16:04:25;100571.06;;;18.14;26.30
77706;BME280;66874;45.274;5.880;2023-02-11T16:06:52;100574.50;;;18.17;26.28
77706;BME280;66874;45.274;5.880;2023-02-11T16:16:52;100588.13;;;17.27;26.79
77706;BME280;66874;45.274;5.880;2023-02-11T16:19:20;100584.53;;;16.91;26.92
77706;BME280;66874;45.274;5.880;2023-02-11T16:21:46;100587.13;;;16.46;27.40
77706;BME280;66874;45.274;5.880;2023-02-11T16:24:20;100595.97;;;15.96;27.86
77706;BME280;66874;45.274;5.880;2023-02-11T16:26:49;100606.44;;;15.40;28.22
77706;BME280;66874;45.274;5.880;2023-02-11T16:29:21;100600.13;;;14.88;28.80
77706;BME280;66874;45.274;5.880;2023-02-11T16:31:48;100603.25;;;14.39;29.23
77706;BME280;66874;45.274;5.880;2023-02-11T16:34:21;100607.19;;;13.96;29.76
77706;BME280;66874;45.274;5.880;2023-02-11T16:36:48;100608.28;;;13.64;30.14
77706;BME280;66874;45.274;5.880;2023-02-11T16:39:14;100617.31;;;13.26;30.52
77706;BME280;66874;45.274;5.880;2023-02-11T16:41:41;100620.94;;;12.82;31.14
77706;BME280;66874;45.274;5.880;2023-02-11T16:44:06;100621.94;;;12.37;31.73
77706;BME280;66874;45.274;5.880;2023-02-11T16:46:32;100621.09;;;12.01;32.19
77706;BME280;66874;45.274;5.880;2023-02-11T16:49:08;100619.28;;;11.60;32.60
77706;BME280;66874;45.274;5.880;2023-02-11T16:51:37;100621.81;;;11.22;33.04
77706;BME280;66874;45.274;5.880;2023-02-11T16:54:03;100628.69;;;10.89;33.56
77706;BME280;66874;45.274;5.880;2023-02-11T16:56:29;100631.09;;;10.51;33.92
77706;BME280;66874;45.274;5.880;2023-02-11T16:58:54;100628.25;;;10.23;34.24
77706;BME280;66874;45.274;5.880;2023-02-11T17:01:20;100631.53;;;9.98;34.48
77706;BME280;66874;45.274;5.880;2023-02-11T17:03:45;100627.00;;;9.78;34.85
77706;BME280;66874;45.274;5.880;2023-02-11T17:06:11;100636.38;;;9.57;35.07
77706;BME280;66874;45.274;5.880;2023-02-11T17:08:38;100637.03;;;9.36;35.25
77706;BME280;66874;45.274;5.880;2023-02-11T17:11:04;100648.19;;;9.22;35.64
77706;BME280;66874;45.274;5.880;2023-02-11T17:13:29;100652.44;;;9.14;35.70
77706;BME280;66874;45.274;5.880;2023-02-11T17:15:55;100649.69;;;9.02;35.98
77706;BME280;66874;45.274;5.880;2023-02-11T17:18:20;100658.31;;;8.95;36.10
77706;BME280;66874;45.274;5.880;2023-02-11T17:20:46;100671.25;;;8.87;36.23
77706;BME280;66874;45.274;5.880;2023-02-11T17:23:11;100669.19;;;8.63;36.38
77706;BME280;66874;45.274;5.880;2023-02-11T17:25:37;100675.00;;;8.45;36.95
77706;BME280;66874;45.274;5.880;2023-02-11T17:28:04;100674.84;;;8.36;37.01
77706;BME280;66874;45.274;5.880;2023-02-11T17:30:29;100681.66;;;8.29;37.18
77706;BME280;66874;45.274;5.880;2023-02-11T17:32:55;100679.81;;;8.22;37.32
77706;BME280;66874;45.274;5.880;2023-02-11T17:35:20;100684.91;;;8.15;37.43
77706;BME280;66874;45.274;5.880;2023-02-11T17:37:46;100693.38;;;8.00;37.53
77706;BME280;66874;45.274;5.880;2023-02-11T17:40:12;100691.31;;;7.82;37.63
77706;BME280;66874;45.274;5.880;2023-02-11T17:42:38;100692.75;;;7.66;38.04
77706;BME280;66874;45.274;5.880;2023-02-11T17:45:03;100703.81;;;7.54;38.31
77706;BME280;66874;45.274;5.880;2023-02-11T17:47:29;100700.75;;;7.31;38.30
77706;BME280;66874;45.274;5.880;2023-02-11T17:49:54;100701.06;;;7.04;38.96
77706;BME280;66874;45.274;5.880;2023-02-11T17:52:20;100706.66;;;6.83;39.19
77706;BME280;66874;45.274;5.880;2023-02-11T17:54:45;100713.91;;;6.57;39.54
77706;BME280;66874;45.274;5.880;2023-02-11T17:57:11;100713.56;;;6.44;39.70
77706;BME280;66874;45.274;5.880;2023-02-11T17:59:38;100716.75;;;6.33;39.98
77706;BME280;66874;45.274;5.880;2023-02-11T18:02:04;100713.97;;;6.24;40.15
77706;BME280;66874;45.274;5.880;2023-02-11T18:04:30;100718.94;;;6.15;40.43
77706;BME280;66874;45.274;5.880;2023-02-11T18:06:56;100720.38;;;6.04;40.41
77706;BME280;66874;45.274;5.880;2023-02-11T18:09:23;100726.91;;;5.90;40.89
77706;BME280;66874;45.274;5.880;2023-02-11T18:11:49;100735.16;;;5.75;40.89
77706;BME280;66874;45.274;5.880;2023-02-11T18:14:17;100734.81;;;5.62;41.19
77706;BME280;66874;45.274;5.880;2023-02-11T18:16:43;100735.47;;;5.55;41.00
77706;BME280;66874;45.274;5.880;2023-02-11T18:19:11;100741.34;;;5.48;41.39
77706;BME280;66874;45.274;5.880;2023-02-11T18:21:37;100745.44;;;5.40;41.56
77706;BME280;66874;45.274;5.880;2023-02-11T18:24:03;100739.28;;;5.36;41.73
77706;BME280;66874;45.274;5.880;2023-02-11T18:26:28;100743.34;;;5.27;41.69
77706;BME280;66874;45.274;5.880;2023-02-11T18:28:56;100748.09;;;5.13;42.21
77706;BME280;66874;45.274;5.880;2023-02-11T18:31:23;100744.28;;;5.00;42.18
77706;BME280;66874;45.274;5.880;2023-02-11T18:33:48;100743.09;;;4.90;42.50
77706;BME280;66874;45.274;5.880;2023-02-11T18:36:14;100742.00;;;4.82;42.45
77706;BME280;66874;45.274;5.880;2023-02-11T18:38:41;100746.06;;;4.74;42.52
77706;BME280;66874;45.274;5.880;2023-02-11T18:41:08;100743.34;;;4.70;42.76
77706;BME280;66874;45.274;5.880;2023-02-11T18:43:34;100742.38;;;4.68;42.90
77706;BME280;66874;45.274;5.880;2023-02-11T18:46:01;100743.03;;;4.60;42.91
77706;BME280;66874;45.274;5.880;2023-02-11T18:48:30;100743.72;;;4.55;43.15
77706;BME280;66874;45.274;5.880;2023-02-11T18:50:55;100746.91;;;4.46;43.07
77706;BME280;66874;45.274;5.880;2023-02-11T18:53:21;100749.25;;;4.38;43.47
77706;BME280;66874;45.274;5.880;2023-02-11T18:55:48;100746.47;;;4.34;43.49
77706;BME280;66874;45.274;5.880;2023-02-11T18:58:14;100745.34;;;4.26;43.52
77706;BME280;66874;45.274;5.880;2023-02-11T19:00:41;100745.91;;;4.15;43.87
77706;BME280;66874;45.274;5.880;2023-02-11T19:03:07;100747.03;;;3.98;44.17
77706;BME280;66874;45.274;5.880;2023-02-11T19:05:44;100750.94;;;3.87;44.35
77706;BME280;66874;45.274;5.880;2023-02-11T19:08:10;100749.75;;;3.77;44.31
77706;BME280;66874;45.274;5.880;2023-02-11T19:10:46;100756.53;;;3.74;44.61
77706;BME280;66874;45.274;5.880;2023-02-11T19:13:12;100754.75;;;3.73;44.66
77706;BME280;66874;45.274;5.880;2023-02-11T19:15:42;100755.47;;;3.68;44.67
77706;BME280;66874;45.274;5.880;2023-02-11T19:18:09;100754.41;;;3.62;44.83
77706;BME280;66874;45.274;5.880;2023-02-11T19:20:37;100754.16;;;3.56;44.81
77706;BME280;66874;45.274;5.880;2023-02-11T19:23:03;100754.88;;;3.52;45.01
77706;BME280;66874;45.274;5.880;2023-02-11T19:25:28;100761.53;;;3.45;44.91
77706;BME280;66874;45.274;5.880;2023-02-11T19:27:54;100758.72;;;3.39;45.24
77706;BME280;66874;45.274;5.880;2023-02-11T19:30:19;100767.97;;;3.32;45.59
77706;BME280;66874;45.274;5.880;2023-02-11T19:32:45;100765.97;;;3.25;45.50
77706;BME280;66874;45.274;5.880;2023-02-11T19:35:10;100766.63;;;3.20;45.57
77706;BME280;66874;45.274;5.880;2023-02-11T19:37:35;100768.13;;;3.14;45.57
77706;BME280;66874;45.274;5.880;2023-02-11T19:40:01;100765.38;;;3.10;45.68
77706;BME280;66874;45.274;5.880;2023-02-11T19:42:26;100765.09;;;3.02;45.80
77706;BME280;66874;45.274;5.880;2023-02-11T19:44:52;100763.97;;;2.96;45.97
77706;BME280;66874;45.274;5.880;2023-02-11T19:47:17;100769.03;;;2.92;46.06
77706;BME280;66874;45.274;5.880;2023-02-11T19:49:43;100773.22;;;2.89;46.03
77706;BME280;66874;45.274;5.880;2023-02-11T19:52:09;100766.25;;;2.88;46.04
77706;BME280;66874;45.274;5.880;2023-02-11T19:54:36;100767.78;;;2.83;46.29
77706;BME280;66874;45.274;5.880;2023-02-11T19:57:02;100761.63;;;2.79;46.09
77706;BME280;66874;45.274;5.880;2023-02-11T19:59:27;100758.03;;;2.76;46.36
77706;BME280;66874;45.274;5.880;2023-02-11T20:01:53;100766.47;;;2.72;46.57
77706;BME280;66874;45.274;5.880;2023-02-11T20:04:18;100767.13;;;2.66;46.76
77706;BME280;66874;45.274;5.880;2023-02-11T20:06:44;100769.41;;;2.58;46.75
77706;BME280;66874;45.274;5.880;2023-02-11T20:09:13;100776.06;;;2.53;46.64
77706;BME280;66874;45.274;5.880;2023-02-11T20:11:39;100787.88;;;2.47;47.03
77706;BME280;66874;45.274;5.880;2023-02-11T20:14:05;100775.56;;;2.41;47.01
77706;BME280;66874;45.274;5.880;2023-02-11T20:16:32;100786.56;;;2.35;47.17
77706;BME280;66874;45.274;5.880;2023-02-11T20:18:58;100781.88;;;2.27;47.24
77706;BME280;66874;45.274;5.880;2023-02-11T20:21:25;100795.56;;;2.24;47.45
77706;BME280;66874;45.274;5.880;2023-02-11T20:23:52;100800.44;;;2.18;47.74
77706;BME280;66874;45.274;5.880;2023-02-11T20:26:25;100804.41;;;2.10;47.79
77706;BME280;66874;45.274;5.880;2023-02-11T20:28:52;100802.72;;;1.91;48.00
77706;BME280;66874;45.274;5.880;2023-02-11T20:31:19;100799.00;;;1.84;48.02
77706;BME280;66874;45.274;5.880;2023-02-11T20:33:46;100802.94;;;1.76;48.45
77706;BME280;66874;45.274;5.880;2023-02-11T20:36:17;100811.44;;;1.74;48.45
77706;BME280;66874;45.274;5.880;2023-02-11T20:38:44;100807.03;;;1.71;48.54